Aérodrome :
LOGIN :

S'inscrire | Disclaimer

   EN    FR    IT 

 










Légende :    VFR   VFR Marginal   IFR   IFR Intensif   IFR Très Intensif
Visi : 
Plafond : 
>= 8 km
>= 3000ft
5 à 8 km
1000 à 3000 ft
1500m à 5 km
500 à 1000 ft
800 à 1500m
200 à 500 ft
< 800m
< 200 ft
Symboles :   Orages  Brouillard  Fortes neiges  Fortes précipitations  Vent > 20 kt
SIGMETs :   Divers  Orages  Givrage  Turbulence  Onde Orograph.  Cendres Volcan.






- Altitude de l'aérodrome : 23 ft
- Code IATA : XFW


EDHI - Hamburg Finkenwerder

DERNIER METAR :
  • 230220Z AUTO VRB02KT 9999 // BKN060/// BKN093/// 17/12 Q1016

METARs EXPIRÉS :
  • 230150Z AUTO 14003KT 110V180 9999 // FEW062/// OVC089/// 17/12 Q1016
  • 230120Z AUTO VRB02KT 9999 // BKN086/// 17/12 Q1016
  • 230050Z AUTO VRB01KT 9999 // OVC084/// 17/12 Q1016
  • 230020Z AUTO VRB02KT 9999 // BKN084/// 16/12 Q1017
  • 222350Z AUTO 12002KT 9999 // SCT082/// 16/12 Q1017
  • 222320Z AUTO VRB02KT 9999 3900 // BKN082/// 17/12 Q1017
  • 222250Z AUTO 14004KT 9999 4200 // OVC079/// 16/13 Q1017
  • 222220Z AUTO 14003KT 110V170 9999 2500 // SCT047/// BKN079/// 16/13 Q1017
  • 222150Z AUTO 13002KT 9999 2600 // SCT060/// BKN076/// 15/12 Q1017

Prévision TAF périmée.



MET'MAP, la Météo Aéronautique d'un coup d'oeil ! - Copyright ORBIFLY Décembre 2007 - Disclaimer

ORBIFLY MET'MAP TEAM :

Programmation & Développement : Alexandra Zaïnal
Sur une idée originale de : Baudouin d'Aumeries
Soutien technique & logistique : Manuel Goepfert
Assistance : Marc-Olivier Méhu




SOURCES & CREDITS :

   NOAA